Saint-Philippe-De-Neri, Canada
Current Conditions -  °F | °C
As of 12:53 PM on Friday 21 Nov 2014 (Local Time) from KFVE Reporting Station
Overcast Overcast  
Wind Chill: -15°   Ceiling: 3300
Heat Index: -7°   Visibility: 10mi
Dew Point: -14°   Wind: 20mph
Humidity: 57%   Direction: 310°NW
Pressure: 29.82"   Gusts: 31mph
Location:  47.45°N, 69.88°W
Report Text: KFVE 211753Z AUTO 31017G27KT 10SM BKN033 OVC040 M07/M14 A2982 RMK AO2 PK WND 30027/1747 SLP114 60000 I6000 T10671139 11067 21117 51023
Loading
Personal Weather Stations






























Interactive Weather Map New forecast layout! Learn more

10-Day Weather Forecast

Advertisements
Track Severe Weather on mobile